createdAt,value
2017-10-13T00:01:03.534Z,13.43
2017-10-13T00:03:30.926Z,7.50
2017-10-13T00:05:58.256Z,12.93
2017-10-13T00:08:25.602Z,11.10
2017-10-13T00:10:52.976Z,10.53
2017-10-13T00:13:20.459Z,9.07
2017-10-13T00:15:47.780Z,13.63
2017-10-13T00:18:15.108Z,8.13
2017-10-13T00:20:42.778Z,13.47
2017-10-13T00:23:10.110Z,8.07
2017-10-13T00:25:37.607Z,11.53
2017-10-13T00:28:05.007Z,8.17
2017-10-13T00:30:32.372Z,10.80
2017-10-13T00:32:59.724Z,7.97
2017-10-13T00:35:27.035Z,12.07
2017-10-13T00:37:54.397Z,7.73
2017-10-13T00:40:21.734Z,9.07
2017-10-13T00:42:49.055Z,6.20
2017-10-13T00:45:16.368Z,6.37
2017-10-13T00:47:43.686Z,10.23
2017-10-13T00:50:11.008Z,5.93
2017-10-13T00:52:38.563Z,11.50
2017-10-13T00:55:05.952Z,8.23
2017-10-13T00:57:33.260Z,8.67
2017-10-13T01:00:00.581Z,8.83
2017-10-13T01:02:27.895Z,7.83
2017-10-13T01:04:55.241Z,12.50
2017-10-13T01:07:22.587Z,7.70
2017-10-13T01:09:50.813Z,6.50
2017-10-13T01:12:18.542Z,8.87
2017-10-13T01:14:45.878Z,5.20
2017-10-13T01:17:13.484Z,9.40
2017-10-13T01:19:40.812Z,8.27
2017-10-13T01:22:08.131Z,12.30
2017-10-13T01:24:35.453Z,9.23
2017-10-13T01:27:02.779Z,17.43
2017-10-13T01:29:30.332Z,5.97
2017-10-13T01:31:57.832Z,7.97
2017-10-13T01:34:25.471Z,10.73
2017-10-13T01:36:52.976Z,6.67
2017-10-13T01:39:20.744Z,7.30
2017-10-13T01:41:48.162Z,11.27
2017-10-13T01:44:15.497Z,10.70
2017-10-13T01:46:43.262Z,5.60
2017-10-13T01:49:10.582Z,7.60
2017-10-13T01:51:37.921Z,18.17
2017-10-13T01:54:05.590Z,10.10
2017-10-13T01:56:33.607Z,8.57
2017-10-13T01:59:00.911Z,7.80
2017-10-13T02:01:28.235Z,6.20
2017-10-13T02:03:55.568Z,9.87
2017-10-13T02:06:22.923Z,8.57
2017-10-13T02:08:50.257Z,9.87
2017-10-13T02:11:17.559Z,6.87
2017-10-13T02:13:44.906Z,6.07
2017-10-13T02:16:12.244Z,9.17
2017-10-13T02:18:39.587Z,12.13
2017-10-13T02:21:06.941Z,11.33
2017-10-13T02:23:34.272Z,12.33
2017-10-13T02:26:01.584Z,10.93
2017-10-13T02:28:28.945Z,7.40
2017-10-13T02:30:57.155Z,9.30
2017-10-13T02:33:24.952Z,9.07
2017-10-13T02:35:52.301Z,7.63
2017-10-13T02:38:19.622Z,11.37
2017-10-13T02:40:47.149Z,7.50
2017-10-13T02:43:14.797Z,8.93
2017-10-13T02:45:42.299Z,13.17
2017-10-13T02:48:09.759Z,12.37
2017-10-13T02:50:37.132Z,10.17
2017-10-13T02:53:04.789Z,9.73
2017-10-13T02:55:32.111Z,9.60
2017-10-13T02:57:59.422Z,9.20
2017-10-13T03:00:26.912Z,17.97
2017-10-13T03:02:54.220Z,12.40
2017-10-13T03:05:21.545Z,9.30
2017-10-13T03:07:48.851Z,10.80
2017-10-13T03:10:16.202Z,10.13
2017-10-13T03:12:43.545Z,6.50
2017-10-13T03:15:10.869Z,11.47
2017-10-13T03:17:38.195Z,14.40
2017-10-13T03:20:05.536Z,9.20
2017-10-13T03:22:33.045Z,5.47
2017-10-13T03:25:00.365Z,11.57
2017-10-13T03:27:27.709Z,8.20
2017-10-13T03:29:55.020Z,11.27
2017-10-13T03:32:22.348Z,8.00
2017-10-13T03:34:49.655Z,8.67
2017-10-13T03:37:16.972Z,7.77
2017-10-13T03:39:44.306Z,12.57
2017-10-13T03:42:11.627Z,14.60
2017-10-13T03:44:38.935Z,11.33
2017-10-13T03:47:06.273Z,8.73
2017-10-13T03:49:33.765Z,10.70
2017-10-13T03:52:01.168Z,10.53
2017-10-13T03:54:28.805Z,9.60
2017-10-13T03:56:56.305Z,10.37
2017-10-13T03:59:23.635Z,14.03
2017-10-13T04:01:50.978Z,10.80
2017-10-13T04:04:18.603Z,8.90
2017-10-13T04:06:46.076Z,9.50
2017-10-13T04:09:13.674Z,10.90
2017-10-13T04:11:41.016Z,6.60
2017-10-13T04:14:09.258Z,9.80
2017-10-13T04:16:36.572Z,9.90
2017-10-13T04:19:03.896Z,9.83
2017-10-13T04:21:31.509Z,9.97
2017-10-13T04:23:58.859Z,12.27
2017-10-13T04:26:26.164Z,10.93
2017-10-13T04:28:53.506Z,12.47
2017-10-13T04:31:21.096Z,12.50
2017-10-13T04:33:48.597Z,11.40
2017-10-13T04:36:15.954Z,9.30
2017-10-13T04:38:43.255Z,11.33
2017-10-13T04:41:10.601Z,13.00
2017-10-13T04:43:38.263Z,13.77
2017-10-13T04:46:06.501Z,17.43
2017-10-13T04:48:33.817Z,15.00
2017-10-13T04:51:02.052Z,12.20
2017-10-13T04:53:29.582Z,10.00
2017-10-13T04:55:57.814Z,18.33
2017-10-13T04:58:25.333Z,10.13
2017-10-13T05:00:52.674Z,12.07
2017-10-13T05:03:19.984Z,9.23
2017-10-13T05:05:47.345Z,16.70
2017-10-13T05:08:14.678Z,10.90
2017-10-13T05:10:42.287Z,7.90
2017-10-13T05:13:09.592Z,13.97
2017-10-13T05:15:36.892Z,7.70
2017-10-13T05:18:04.212Z,14.87
2017-10-13T05:20:31.756Z,12.90
2017-10-13T05:22:59.128Z,13.80
2017-10-13T05:25:26.429Z,13.50
2017-10-13T05:27:54.065Z,9.17
2017-10-13T05:30:21.361Z,10.10
2017-10-13T05:32:49.115Z,12.23
2017-10-13T05:35:16.417Z,13.30
2017-10-13T05:37:43.749Z,13.63
2017-10-13T05:40:11.964Z,15.80
2017-10-13T05:42:39.315Z,10.10
2017-10-13T05:45:06.608Z,24.63
2017-10-13T05:47:33.960Z,16.70
2017-10-13T05:50:01.267Z,12.37
2017-10-13T05:52:28.584Z,16.17
2017-10-13T05:54:55.881Z,16.67
2017-10-13T05:57:23.224Z,13.93
2017-10-13T05:59:51.353Z,13.63
2017-10-13T06:02:18.663Z,12.93
2017-10-13T06:04:45.972Z,16.13
2017-10-13T06:07:13.292Z,9.80
2017-10-13T06:09:40.801Z,12.10
2017-10-13T06:12:08.095Z,17.80
2017-10-13T06:14:35.419Z,14.90
2017-10-13T06:17:02.712Z,19.00
2017-10-13T06:19:30.066Z,23.27
2017-10-13T06:21:58.482Z,10.27
2017-10-13T06:24:25.825Z,11.50
2017-10-13T06:26:55.069Z,12.43
2017-10-13T06:29:22.431Z,15.20
2017-10-13T06:31:49.866Z,14.90
2017-10-13T06:34:17.173Z,8.00
2017-10-13T06:36:44.497Z,18.03
2017-10-13T06:39:11.980Z,13.17
2017-10-13T06:41:39.443Z,17.53
2017-10-13T06:44:07.003Z,9.07
2017-10-13T06:46:34.501Z,13.37
2017-10-13T06:49:01.806Z,15.53
2017-10-13T06:51:29.140Z,14.70
2017-10-13T06:53:56.436Z,19.13
2017-10-13T06:56:23.785Z,16.37
2017-10-13T06:58:51.072Z,13.90
2017-10-13T07:01:18.592Z,22.90
2017-10-13T07:03:46.816Z,17.10
2017-10-13T07:06:14.134Z,11.07
2017-10-13T07:08:41.646Z,10.33
2017-10-13T07:11:09.040Z,11.07
2017-10-13T07:13:36.339Z,11.77
2017-10-13T07:16:03.633Z,11.17
2017-10-13T07:18:30.953Z,13.33
2017-10-13T07:20:58.276Z,16.93
2017-10-13T07:23:25.584Z,18.13
2017-10-13T07:25:52.915Z,17.10
2017-10-13T07:28:20.225Z,16.33
2017-10-13T07:30:47.552Z,10.53
2017-10-13T07:33:14.860Z,15.57
2017-10-13T07:35:42.490Z,13.80
2017-10-13T07:38:09.905Z,10.33
2017-10-13T07:40:37.297Z,18.93
2017-10-13T07:43:04.599Z,13.33
2017-10-13T07:45:31.908Z,14.17
2017-10-13T07:47:59.281Z,12.70
2017-10-13T07:50:26.609Z,12.63
2017-10-13T07:52:53.916Z,10.93
2017-10-13T07:55:21.219Z,8.30
2017-10-13T07:57:48.635Z,16.77
2017-10-13T08:00:15.956Z,12.70
2017-10-13T08:02:43.248Z,20.43
2017-10-13T08:05:10.559Z,16.87
2017-10-13T08:07:37.886Z,15.43
2017-10-13T08:10:05.371Z,16.53
2017-10-13T08:12:32.681Z,13.97
2017-10-13T08:15:00.005Z,15.13
2017-10-13T08:17:27.300Z,15.87
2017-10-13T08:19:54.657Z,19.47
2017-10-13T08:22:21.954Z,13.13
2017-10-13T08:24:49.276Z,17.70
2017-10-13T08:27:16.584Z,21.07
2017-10-13T08:29:43.918Z,12.73
2017-10-13T08:32:11.229Z,12.37
2017-10-13T08:34:38.576Z,17.73
2017-10-13T08:37:05.895Z,14.83
2017-10-13T08:39:33.188Z,21.93
2017-10-13T08:42:00.496Z,16.00
2017-10-13T08:44:27.823Z,14.33
2017-10-13T08:46:55.124Z,13.33
2017-10-13T08:49:22.852Z,20.30
2017-10-13T08:51:50.160Z,16.27
2017-10-13T08:54:17.492Z,18.67
2017-10-13T08:56:44.876Z,20.80
2017-10-13T08:59:12.333Z,14.03
2017-10-13T09:01:39.808Z,21.00
2017-10-13T09:04:07.284Z,13.03
2017-10-13T09:06:34.766Z,14.37
2017-10-13T09:09:02.086Z,11.30
2017-10-13T09:11:29.688Z,14.77
2017-10-13T09:13:57.313Z,22.57
2017-10-13T09:16:24.948Z,14.90
2017-10-13T09:18:52.552Z,17.07
2017-10-13T09:21:19.848Z,12.53
2017-10-13T09:23:47.472Z,18.00
2017-10-13T09:26:14.828Z,19.33
2017-10-13T09:28:42.140Z,15.73
2017-10-13T09:31:09.440Z,15.83
2017-10-13T09:33:36.765Z,15.80
2017-10-13T09:36:04.062Z,20.57
2017-10-13T09:38:31.653Z,16.57
2017-10-13T09:40:58.951Z,15.70
2017-10-13T09:43:26.253Z,16.80
2017-10-13T09:45:53.595Z,13.97
2017-10-13T09:48:20.913Z,17.10
2017-10-13T09:50:48.228Z,17.43
2017-10-13T09:53:15.545Z,16.77
2017-10-13T09:55:42.856Z,23.97
2017-10-13T09:58:10.174Z,15.50
2017-10-13T10:00:37.524Z,18.30
2017-10-13T10:03:04.824Z,14.50
2017-10-13T10:05:32.148Z,18.17
2017-10-13T10:07:59.452Z,21.63
2017-10-13T10:10:26.802Z,13.60
2017-10-13T10:12:54.099Z,14.80
2017-10-13T10:15:21.393Z,9.83
2017-10-13T10:17:48.816Z,20.93
2017-10-13T10:20:16.115Z,21.53
2017-10-13T10:22:43.728Z,15.03
2017-10-13T10:25:11.024Z,19.43
2017-10-13T10:27:38.389Z,19.03
2017-10-13T10:30:05.700Z,12.30
2017-10-13T10:32:33.007Z,12.03
2017-10-13T10:35:00.313Z,13.83
2017-10-13T10:37:27.962Z,15.63
2017-10-13T10:39:55.531Z,17.90
2017-10-13T10:42:22.908Z,15.60
2017-10-13T10:44:50.212Z,14.83
2017-10-13T10:47:17.941Z,13.33
2017-10-13T10:49:45.227Z,11.80
2017-10-13T10:52:12.547Z,17.00
2017-10-13T10:54:39.852Z,12.97
2017-10-13T10:57:07.149Z,22.10
2017-10-13T10:59:34.511Z,10.10
2017-10-13T11:02:02.704Z,14.90
2017-10-13T11:04:30.049Z,11.33
2017-10-13T11:06:57.431Z,9.30
2017-10-13T11:09:24.747Z,12.70
2017-10-13T11:11:52.051Z,11.80
2017-10-13T11:14:19.447Z,7.80
2017-10-13T11:16:46.749Z,9.10
2017-10-13T11:19:14.081Z,11.40
2017-10-13T11:21:41.368Z,10.67
2017-10-13T11:24:08.708Z,6.27
2017-10-13T11:26:36.912Z,6.00
2017-10-13T11:29:04.205Z,10.83
2017-10-13T11:31:31.512Z,14.10
2017-10-13T11:33:58.809Z,14.93
2017-10-13T11:36:26.124Z,18.13
2017-10-13T11:38:53.436Z,16.03
2017-10-13T11:41:20.744Z,9.20
2017-10-13T11:43:48.061Z,13.17
2017-10-13T11:46:15.372Z,8.93
2017-10-13T11:48:42.664Z,19.30
2017-10-13T11:51:10.076Z,11.47
2017-10-13T11:53:37.367Z,7.10
2017-10-13T11:56:04.697Z,7.27
2017-10-13T11:58:31.997Z,9.57
2017-10-13T12:00:59.356Z,8.47
2017-10-13T12:03:26.673Z,14.53
2017-10-13T12:05:53.981Z,13.63
2017-10-13T12:08:21.301Z,5.77
2017-10-13T12:10:48.607Z,8.43
2017-10-13T12:13:15.921Z,10.90
2017-10-13T12:15:43.248Z,6.80
2017-10-13T12:18:10.556Z,10.93
2017-10-13T12:20:38.281Z,9.93
2017-10-13T12:23:05.596Z,7.93
2017-10-13T12:25:32.897Z,8.87
2017-10-13T12:28:00.232Z,8.50
2017-10-13T12:30:27.551Z,9.50
2017-10-13T12:32:54.892Z,16.10
2017-10-13T12:35:22.197Z,17.50
2017-10-13T12:37:49.692Z,9.03
2017-10-13T12:40:17.061Z,10.87
2017-10-13T12:42:44.516Z,10.63
2017-10-13T12:45:11.824Z,14.27
2017-10-13T12:47:39.154Z,11.63
2017-10-13T12:50:06.686Z,12.10
2017-10-13T12:52:34.030Z,9.77
2017-10-13T12:55:01.321Z,12.30
2017-10-13T12:57:28.656Z,13.63
2017-10-13T12:59:55.956Z,17.87
2017-10-13T13:02:23.588Z,12.40
2017-10-13T13:04:50.948Z,18.53
2017-10-13T13:07:18.614Z,20.27
2017-10-13T13:09:45.905Z,13.97
2017-10-13T13:12:13.218Z,13.00
2017-10-13T13:14:40.844Z,14.30
2017-10-13T13:17:08.174Z,11.10
2017-10-13T13:19:35.480Z,18.10
2017-10-13T13:22:02.789Z,15.33
2017-10-13T13:24:30.124Z,14.67
2017-10-13T13:26:57.620Z,14.67
2017-10-13T13:29:25.403Z,13.90
2017-10-13T13:31:52.696Z,14.40
2017-10-13T13:34:20.012Z,14.70
2017-10-13T13:36:48.343Z,15.73
2017-10-13T13:39:18.936Z,14.30
2017-10-13T13:41:46.244Z,12.07
2017-10-13T13:44:13.552Z,14.80
2017-10-13T13:46:40.844Z,10.90
2017-10-13T13:49:09.229Z,12.40
2017-10-13T13:51:36.547Z,15.60
2017-10-13T13:54:03.868Z,13.90
2017-10-13T13:56:32.204Z,19.50
2017-10-13T13:58:59.846Z,16.13
2017-10-13T14:01:27.169Z,15.90
2017-10-13T14:03:54.492Z,12.80
2017-10-13T14:06:21.810Z,14.80
2017-10-13T14:08:49.112Z,13.00
2017-10-13T14:11:16.428Z,16.37
2017-10-13T14:13:43.744Z,13.93
2017-10-13T14:16:11.071Z,17.67
2017-10-13T14:18:38.409Z,13.17
2017-10-13T14:21:05.709Z,15.33
2017-10-13T14:23:33.382Z,12.73
2017-10-13T14:26:00.720Z,14.07
2017-10-13T14:28:28.888Z,14.43
2017-10-13T14:30:56.191Z,17.50
2017-10-13T14:33:23.516Z,15.20
2017-10-13T14:35:50.820Z,15.07
2017-10-13T14:38:18.113Z,15.40
2017-10-13T14:40:45.976Z,13.70
2017-10-13T14:43:13.306Z,18.70
2017-10-13T14:45:40.631Z,16.87
2017-10-13T14:48:07.953Z,13.00
2017-10-13T14:50:35.918Z,13.17
2017-10-13T14:53:03.229Z,11.83
2017-10-13T14:55:30.535Z,15.67
2017-10-13T14:57:57.832Z,15.20
2017-10-13T15:00:25.337Z,13.63
2017-10-13T15:02:52.626Z,13.17
2017-10-13T15:05:19.940Z,17.50
2017-10-13T15:07:47.265Z,13.40
2017-10-13T15:10:14.592Z,14.50
2017-10-13T15:12:41.922Z,16.10
2017-10-13T15:15:09.256Z,13.37
2017-10-13T15:17:36.609Z,15.90
2017-10-13T15:20:03.900Z,19.83
2017-10-13T15:22:32.460Z,19.80
2017-10-13T15:25:05.485Z,14.57
2017-10-13T15:27:38.712Z,15.50
2017-10-13T15:30:11.869Z,17.83
2017-10-13T15:32:44.864Z,15.43
2017-10-13T15:35:17.969Z,16.20
2017-10-13T15:37:51.129Z,21.70
2017-10-13T15:40:24.234Z,19.00
2017-10-13T15:42:57.739Z,18.77
2017-10-13T15:45:30.869Z,17.13
2017-10-13T15:48:04.368Z,18.00
2017-10-13T15:50:47.337Z,18.80
2017-10-13T15:53:14.648Z,16.63
2017-10-13T15:55:41.952Z,20.27
2017-10-13T15:58:10.682Z,18.90
2017-10-13T16:00:37.995Z,16.13
2017-10-13T16:03:05.341Z,14.90
2017-10-13T16:05:32.635Z,17.23
2017-10-13T16:07:59.977Z,22.70
2017-10-13T16:10:28.083Z,15.70
2017-10-13T16:12:55.394Z,22.97
2017-10-13T16:15:22.715Z,26.53
2017-10-13T16:17:50.017Z,25.77
2017-10-13T16:20:17.363Z,28.53
2017-10-13T16:22:44.953Z,23.67
2017-10-13T16:25:12.284Z,20.00
2017-10-13T16:27:39.584Z,22.03
2017-10-13T16:30:07.416Z,26.30
2017-10-13T16:32:34.736Z,14.90
2017-10-13T16:35:02.069Z,16.07
2017-10-13T16:37:29.356Z,25.37
2017-10-13T16:39:56.700Z,18.70
2017-10-13T16:42:24.022Z,27.57
2017-10-13T16:44:51.645Z,24.70
2017-10-13T16:47:18.936Z,20.53
2017-10-13T16:49:46.281Z,15.83
2017-10-13T16:52:13.576Z,23.63
2017-10-13T16:54:40.906Z,18.50
2017-10-13T16:57:09.132Z,21.23
2017-10-13T16:59:36.868Z,19.13
2017-10-13T17:02:04.573Z,24.10
2017-10-13T17:04:31.886Z,19.83
2017-10-13T17:06:59.243Z,17.00
2017-10-13T17:09:26.586Z,19.57
2017-10-13T17:11:53.892Z,19.93
2017-10-13T17:14:21.200Z,15.30
2017-10-13T17:16:48.612Z,22.33
2017-10-13T17:19:15.949Z,29.77
2017-10-13T17:21:43.256Z,25.40
2017-10-13T17:24:10.569Z,22.37
2017-10-13T17:26:37.908Z,18.67
2017-10-13T17:29:05.221Z,25.53
2017-10-13T17:31:32.772Z,22.70
2017-10-13T17:34:00.136Z,27.30
2017-10-13T17:36:27.448Z,24.37
2017-10-13T17:38:54.802Z,25.33
2017-10-13T17:41:22.170Z,23.20
2017-10-13T17:43:49.488Z,20.53
2017-10-13T17:46:16.865Z,27.10
2017-10-13T17:48:44.185Z,33.83
2017-10-13T17:51:11.509Z,26.17
2017-10-13T17:53:38.877Z,24.67
2017-10-13T17:56:06.239Z,25.77
2017-10-13T17:58:33.560Z,22.83
2017-10-13T18:01:00.865Z,25.40
2017-10-13T18:03:28.227Z,37.03
2017-10-13T18:05:55.553Z,27.50
2017-10-13T18:08:22.847Z,25.37
2017-10-13T18:10:50.211Z,29.03
2017-10-13T18:13:18.240Z,26.60
2017-10-13T18:15:45.575Z,28.67
2017-10-13T18:18:12.904Z,26.60
2017-10-13T18:20:40.225Z,28.47
2017-10-13T18:23:08.193Z,20.73
2017-10-13T18:25:35.541Z,28.43
2017-10-13T18:28:02.840Z,25.43
2017-10-13T18:30:30.180Z,23.90
2017-10-13T18:32:57.490Z,28.30
2017-10-13T18:35:24.829Z,22.30
2017-10-13T18:37:52.123Z,27.40
2017-10-13T18:40:19.437Z,27.03
2017-10-13T18:42:46.752Z,27.93
2017-10-13T18:45:14.073Z,23.80
2017-10-13T18:47:41.436Z,26.93
2017-10-13T18:50:08.748Z,23.57
2017-10-13T18:52:36.061Z,30.93
2017-10-13T18:55:03.365Z,21.87
2017-10-13T18:57:30.694Z,30.43
2017-10-13T18:59:58.593Z,21.83
2017-10-13T19:02:25.899Z,31.13
2017-10-13T19:04:53.444Z,26.10
2017-10-13T19:07:21.258Z,24.07
2017-10-13T19:09:48.591Z,28.93
2017-10-13T19:12:16.093Z,26.20
2017-10-13T19:14:44.366Z,28.10
2017-10-13T19:17:11.697Z,33.27
2017-10-13T19:19:39.032Z,28.77
2017-10-13T19:22:06.376Z,33.83
2017-10-13T19:24:33.729Z,33.87
2017-10-13T19:27:01.954Z,33.70
2017-10-13T19:29:29.316Z,35.60
2017-10-13T19:31:56.608Z,34.97
2017-10-13T19:34:23.996Z,43.43
2017-10-13T19:36:51.293Z,27.10
2017-10-13T19:39:18.612Z,32.43
2017-10-13T19:41:45.946Z,36.37
2017-10-13T19:44:14.096Z,58.20
2017-10-13T19:46:41.393Z,86.53
2017-10-13T19:49:09.406Z,54.33
2017-10-13T19:51:37.221Z,40.60
2017-10-13T19:54:04.543Z,46.33
2017-10-13T19:56:31.910Z,41.90
2017-10-13T19:58:59.249Z,33.30
2017-10-13T20:01:26.601Z,42.37
2017-10-13T20:03:53.936Z,41.70
2017-10-13T20:06:21.336Z,30.03
2017-10-13T20:08:48.670Z,37.00
2017-10-13T20:11:16.032Z,37.10
2017-10-13T20:13:43.384Z,38.50
2017-10-13T20:16:10.705Z,32.57
2017-10-13T20:18:38.337Z,45.20
2017-10-13T20:21:05.661Z,33.57
2017-10-13T20:23:32.973Z,42.30
2017-10-13T20:26:00.295Z,38.00
2017-10-13T20:28:27.615Z,38.47
2017-10-13T20:30:54.936Z,34.93
2017-10-13T20:33:22.241Z,37.77
2017-10-13T20:35:49.565Z,39.77
2017-10-13T20:38:16.865Z,39.83
2017-10-13T20:40:44.188Z,33.60
2017-10-13T20:43:11.532Z,32.10
2017-10-13T20:45:38.909Z,29.73
2017-10-13T20:48:06.744Z,35.23
2017-10-13T20:50:34.541Z,32.77
2017-10-13T20:53:01.892Z,36.13
2017-10-13T20:55:29.209Z,36.77
2017-10-13T20:57:56.540Z,26.70
2017-10-13T21:00:23.877Z,31.27
2017-10-13T21:02:51.194Z,33.13
2017-10-13T21:05:18.491Z,25.80
2017-10-13T21:07:46.124Z,40.10
2017-10-13T21:10:13.480Z,33.27
2017-10-13T21:12:40.798Z,30.97
2017-10-13T21:15:08.126Z,28.20
2017-10-13T21:17:35.442Z,37.80
2017-10-13T21:20:03.062Z,28.23
2017-10-13T21:22:30.380Z,28.20
2017-10-13T21:24:57.708Z,29.47
2017-10-13T21:27:25.016Z,28.97
2017-10-13T21:29:52.331Z,28.83
2017-10-13T21:32:19.664Z,22.10
2017-10-13T21:34:46.994Z,25.37
2017-10-13T21:37:14.318Z,25.67
2017-10-13T21:39:41.631Z,29.67
2017-10-13T21:42:08.960Z,31.20
2017-10-13T21:44:36.284Z,28.17
2017-10-13T21:47:03.916Z,24.17
2017-10-13T21:49:31.320Z,27.83
2017-10-13T21:51:58.624Z,31.53
2017-10-13T21:54:26.341Z,36.47
2017-10-13T21:56:53.648Z,26.03
2017-10-13T21:59:20.997Z,29.07
2017-10-13T22:01:48.296Z,27.13
2017-10-13T22:04:15.613Z,27.27
2017-10-13T22:06:42.916Z,29.23
2017-10-13T22:09:10.605Z,28.80
2017-10-13T22:11:38.449Z,32.20
2017-10-13T22:14:05.920Z,29.57
2017-10-13T22:16:33.308Z,31.60
2017-10-13T22:19:00.612Z,39.27
2017-10-13T22:21:27.936Z,35.13
2017-10-13T22:23:55.244Z,32.43
2017-10-13T22:26:22.567Z,36.13
2017-10-13T22:28:50.044Z,28.63
2017-10-13T22:31:17.359Z,34.83
2017-10-13T22:33:44.660Z,30.10
2017-10-13T22:36:12.044Z,29.53
2017-10-13T22:38:39.396Z,30.90
2017-10-13T22:41:06.797Z,33.23
2017-10-13T22:43:34.115Z,32.27
2017-10-13T22:46:01.440Z,29.57
2017-10-13T22:48:28.736Z,37.23
2017-10-13T22:50:56.046Z,35.03
2017-10-13T22:53:23.668Z,30.23
2017-10-13T22:55:51.672Z,27.60
2017-10-13T22:58:19.001Z,32.67
2017-10-13T23:00:46.303Z,27.47
2017-10-13T23:03:13.658Z,27.47
2017-10-13T23:05:41.277Z,34.67
2017-10-13T23:08:08.672Z,27.90
2017-10-13T23:10:35.972Z,29.60
2017-10-13T23:13:03.609Z,26.27
2017-10-13T23:15:30.973Z,29.20
2017-10-13T23:17:59.213Z,37.03
2017-10-13T23:20:26.824Z,31.90
2017-10-13T23:22:54.145Z,37.70
2017-10-13T23:25:21.450Z,33.70
2017-10-13T23:27:48.836Z,35.00
2017-10-13T23:30:16.153Z,30.90
2017-10-13T23:32:43.477Z,29.83
2017-10-13T23:35:10.797Z,27.73
2017-10-13T23:37:38.115Z,34.50
2017-10-13T23:40:05.612Z,28.37
2017-10-13T23:42:32.918Z,34.03
2017-10-13T23:45:00.244Z,30.93
2017-10-13T23:47:27.544Z,33.33
2017-10-13T23:49:54.876Z,31.73
2017-10-13T23:52:22.169Z,29.43
2017-10-13T23:54:49.488Z,30.80
2017-10-13T23:57:16.797Z,27.67
2017-10-13T23:59:44.241Z,29.73
